sensor_id;sensor_type;location;lat;lon;timestamp;P1;durP1;ratioP1;P2;durP2;ratioP2
10029;SDS011;5055;52.054;8.524;2024-03-02T00:01:44;0.50;;;0.50;;
10029;SDS011;5055;52.054;8.524;2024-03-02T00:04:14;0.33;;;0.33;;
10029;SDS011;5055;52.054;8.524;2024-03-02T00:06:43;0.60;;;0.60;;
10029;SDS011;5055;52.054;8.524;2024-03-02T00:09:11;0.50;;;0.50;;
10029;SDS011;5055;52.054;8.524;2024-03-02T00:11:39;0.40;;;0.40;;
10029;SDS011;5055;52.054;8.524;2024-03-02T00:14:07;0.63;;;0.63;;
10029;SDS011;5055;52.054;8.524;2024-03-02T00:16:35;0.50;;;0.50;;
10029;SDS011;5055;52.054;8.524;2024-03-02T00:19:04;0.40;;;0.40;;
10029;SDS011;5055;52.054;8.524;2024-03-02T00:21:35;0.77;;;0.77;;
10029;SDS011;5055;52.054;8.524;2024-03-02T00:24:06;0.50;;;0.50;;
10029;SDS011;5055;52.054;8.524;2024-03-02T00:26:45;0.33;;;0.33;;
10029;SDS011;5055;52.054;8.524;2024-03-02T00:29:14;0.40;;;0.40;;
10029;SDS011;5055;52.054;8.524;2024-03-02T00:31:45;0.60;;;0.60;;
10029;SDS011;5055;52.054;8.524;2024-03-02T00:34:15;0.50;;;0.50;;
10029;SDS011;5055;52.054;8.524;2024-03-02T00:36:45;0.47;;;0.47;;
10029;SDS011;5055;52.054;8.524;2024-03-02T00:39:14;0.43;;;0.43;;
10029;SDS011;5055;52.054;8.524;2024-03-02T00:41:44;0.40;;;0.40;;
10029;SDS011;5055;52.054;8.524;2024-03-02T00:44:12;0.50;;;0.50;;
10029;SDS011;5055;52.054;8.524;2024-03-02T00:46:42;0.40;;;0.40;;
10029;SDS011;5055;52.054;8.524;2024-03-02T00:49:12;0.50;;;0.50;;
10029;SDS011;5055;52.054;8.524;2024-03-02T00:51:48;0.40;;;0.40;;
10029;SDS011;5055;52.054;8.524;2024-03-02T00:54:19;0.50;;;0.50;;
10029;SDS011;5055;52.054;8.524;2024-03-02T00:56:50;0.40;;;0.40;;
10029;SDS011;5055;52.054;8.524;2024-03-02T00:59:18;0.40;;;0.40;;
10029;SDS011;5055;52.054;8.524;2024-03-02T01:01:47;0.50;;;0.50;;
10029;SDS011;5055;52.054;8.524;2024-03-02T01:04:15;0.43;;;0.43;;
10029;SDS011;5055;52.054;8.524;2024-03-02T01:06:43;0.50;;;0.50;;
10029;SDS011;5055;52.054;8.524;2024-03-02T01:09:13;0.40;;;0.40;;
10029;SDS011;5055;52.054;8.524;2024-03-02T01:11:41;0.50;;;0.50;;
10029;SDS011;5055;52.054;8.524;2024-03-02T01:14:09;0.40;;;0.40;;
10029;SDS011;5055;52.054;8.524;2024-03-02T01:16:38;0.50;;;0.50;;
10029;SDS011;5055;52.054;8.524;2024-03-02T01:19:06;0.30;;;0.30;;
10029;SDS011;5055;52.054;8.524;2024-03-02T01:21:34;0.40;;;0.40;;
10029;SDS011;5055;52.054;8.524;2024-03-02T01:24:02;0.50;;;0.50;;
10029;SDS011;5055;52.054;8.524;2024-03-02T01:26:32;0.50;;;0.50;;
10029;SDS011;5055;52.054;8.524;2024-03-02T01:29:00;0.47;;;0.47;;
10029;SDS011;5055;52.054;8.524;2024-03-02T01:31:28;0.50;;;0.50;;
10029;SDS011;5055;52.054;8.524;2024-03-02T01:33:56;0.40;;;0.40;;
10029;SDS011;5055;52.054;8.524;2024-03-02T01:36:24;0.40;;;0.40;;
10029;SDS011;5055;52.054;8.524;2024-03-02T01:38:52;0.50;;;0.50;;
10029;SDS011;5055;52.054;8.524;2024-03-02T01:41:20;0.37;;;0.37;;
10029;SDS011;5055;52.054;8.524;2024-03-02T01:43:50;0.40;;;0.40;;
10029;SDS011;5055;52.054;8.524;2024-03-02T01:46:18;0.50;;;0.50;;
10029;SDS011;5055;52.054;8.524;2024-03-02T01:48:46;0.60;;;0.60;;
10029;SDS011;5055;52.054;8.524;2024-03-02T01:51:14;0.67;;;0.67;;
10029;SDS011;5055;52.054;8.524;2024-03-02T01:53:42;0.40;;;0.40;;
10029;SDS011;5055;52.054;8.524;2024-03-02T01:56:10;0.50;;;0.50;;
10029;SDS011;5055;52.054;8.524;2024-03-02T01:58:38;0.40;;;0.40;;
10029;SDS011;5055;52.054;8.524;2024-03-02T02:01:08;0.33;;;0.33;;
10029;SDS011;5055;52.054;8.524;2024-03-02T02:03:36;0.47;;;0.47;;
10029;SDS011;5055;52.054;8.524;2024-03-02T02:06:04;0.50;;;0.50;;
10029;SDS011;5055;52.054;8.524;2024-03-02T02:08:33;0.60;;;0.60;;
10029;SDS011;5055;52.054;8.524;2024-03-02T02:11:01;0.47;;;0.47;;
10029;SDS011;5055;52.054;8.524;2024-03-02T02:13:29;0.50;;;0.50;;
10029;SDS011;5055;52.054;8.524;2024-03-02T02:16:03;0.60;;;0.60;;
10029;SDS011;5055;52.054;8.524;2024-03-02T02:18:33;0.30;;;0.30;;
10029;SDS011;5055;52.054;8.524;2024-03-02T02:21:02;0.70;;;0.70;;
10029;SDS011;5055;52.054;8.524;2024-03-02T02:23:32;0.57;;;0.57;;
10029;SDS011;5055;52.054;8.524;2024-03-02T02:26:00;0.50;;;0.50;;
10029;SDS011;5055;52.054;8.524;2024-03-02T02:28:29;0.70;;;0.70;;
10029;SDS011;5055;52.054;8.524;2024-03-02T02:30:57;0.40;;;0.40;;
10029;SDS011;5055;52.054;8.524;2024-03-02T02:33:26;0.40;;;0.40;;
10029;SDS011;5055;52.054;8.524;2024-03-02T02:35:55;0.50;;;0.50;;
10029;SDS011;5055;52.054;8.524;2024-03-02T02:38:23;0.50;;;0.50;;
10029;SDS011;5055;52.054;8.524;2024-03-02T02:40:52;0.60;;;0.60;;
10029;SDS011;5055;52.054;8.524;2024-03-02T02:43:21;0.47;;;0.47;;
10029;SDS011;5055;52.054;8.524;2024-03-02T02:45:49;0.50;;;0.50;;
10029;SDS011;5055;52.054;8.524;2024-03-02T02:48:17;0.47;;;0.47;;
10029;SDS011;5055;52.054;8.524;2024-03-02T02:50:45;0.50;;;0.50;;
10029;SDS011;5055;52.054;8.524;2024-03-02T02:53:13;0.40;;;0.40;;
10029;SDS011;5055;52.054;8.524;2024-03-02T02:55:41;0.50;;;0.50;;
10029;SDS011;5055;52.054;8.524;2024-03-02T02:58:11;0.50;;;0.50;;
10029;SDS011;5055;52.054;8.524;2024-03-02T03:00:39;0.40;;;0.40;;
10029;SDS011;5055;52.054;8.524;2024-03-02T03:03:08;0.40;;;0.40;;
10029;SDS011;5055;52.054;8.524;2024-03-02T03:05:36;0.40;;;0.40;;
10029;SDS011;5055;52.054;8.524;2024-03-02T03:08:04;0.57;;;0.57;;
10029;SDS011;5055;52.054;8.524;2024-03-02T03:10:32;0.40;;;0.40;;
10029;SDS011;5055;52.054;8.524;2024-03-02T03:13:00;0.40;;;0.40;;
10029;SDS011;5055;52.054;8.524;2024-03-02T03:15:30;0.50;;;0.50;;
10029;SDS011;5055;52.054;8.524;2024-03-02T03:17:58;0.50;;;0.50;;
10029;SDS011;5055;52.054;8.524;2024-03-02T03:20:26;0.40;;;0.40;;
10029;SDS011;5055;52.054;8.524;2024-03-02T03:22:54;0.30;;;0.30;;
10029;SDS011;5055;52.054;8.524;2024-03-02T03:25:22;0.90;;;0.90;;
10029;SDS011;5055;52.054;8.524;2024-03-02T03:27:50;0.90;;;0.90;;
10029;SDS011;5055;52.054;8.524;2024-03-02T03:30:19;0.37;;;0.37;;
10029;SDS011;5055;52.054;8.524;2024-03-02T03:32:49;0.50;;;0.50;;
10029;SDS011;5055;52.054;8.524;2024-03-02T03:35:17;0.47;;;0.47;;
10029;SDS011;5055;52.054;8.524;2024-03-02T03:37:45;0.47;;;0.47;;
10029;SDS011;5055;52.054;8.524;2024-03-02T03:40:13;0.30;;;0.30;;
10029;SDS011;5055;52.054;8.524;2024-03-02T03:42:41;0.50;;;0.50;;
10029;SDS011;5055;52.054;8.524;2024-03-02T03:45:11;0.40;;;0.40;;
10029;SDS011;5055;52.054;8.524;2024-03-02T03:47:39;0.50;;;0.50;;
10029;SDS011;5055;52.054;8.524;2024-03-02T03:50:09;0.50;;;0.50;;
10029;SDS011;5055;52.054;8.524;2024-03-02T03:52:38;0.50;;;0.50;;
10029;SDS011;5055;52.054;8.524;2024-03-02T03:55:10;0.50;;;0.50;;
10029;SDS011;5055;52.054;8.524;2024-03-02T03:57:38;0.30;;;0.30;;
10029;SDS011;5055;52.054;8.524;2024-03-02T04:00:07;0.47;;;0.47;;
10029;SDS011;5055;52.054;8.524;2024-03-02T04:02:37;0.50;;;0.50;;
10029;SDS011;5055;52.054;8.524;2024-03-02T04:05:06;0.33;;;0.33;;
10029;SDS011;5055;52.054;8.524;2024-03-02T04:07:39;0.30;;;0.30;;
10029;SDS011;5055;52.054;8.524;2024-03-02T04:10:07;0.50;;;0.50;;
10029;SDS011;5055;52.054;8.524;2024-03-02T04:12:36;0.50;;;0.50;;
10029;SDS011;5055;52.054;8.524;2024-03-02T04:15:04;0.33;;;0.33;;
10029;SDS011;5055;52.054;8.524;2024-03-02T04:17:33;0.50;;;0.50;;
10029;SDS011;5055;52.054;8.524;2024-03-02T04:20:02;0.50;;;0.50;;
10029;SDS011;5055;52.054;8.524;2024-03-02T04:22:32;0.50;;;0.50;;
10029;SDS011;5055;52.054;8.524;2024-03-02T04:25:03;0.40;;;0.40;;
10029;SDS011;5055;52.054;8.524;2024-03-02T04:27:33;0.40;;;0.40;;
10029;SDS011;5055;52.054;8.524;2024-03-02T04:30:02;0.40;;;0.40;;
10029;SDS011;5055;52.054;8.524;2024-03-02T04:32:31;0.40;;;0.40;;
10029;SDS011;5055;52.054;8.524;2024-03-02T04:34:59;0.40;;;0.40;;
10029;SDS011;5055;52.054;8.524;2024-03-02T04:37:27;0.37;;;0.37;;
10029;SDS011;5055;52.054;8.524;2024-03-02T04:39:55;0.67;;;0.67;;
10029;SDS011;5055;52.054;8.524;2024-03-02T04:42:24;0.40;;;0.40;;
10029;SDS011;5055;52.054;8.524;2024-03-02T04:44:53;0.70;;;0.70;;
10029;SDS011;5055;52.054;8.524;2024-03-02T04:47:21;0.40;;;0.40;;
10029;SDS011;5055;52.054;8.524;2024-03-02T04:49:49;0.40;;;0.40;;
10029;SDS011;5055;52.054;8.524;2024-03-02T04:52:17;0.50;;;0.50;;
10029;SDS011;5055;52.054;8.524;2024-03-02T04:54:44;0.50;;;0.50;;
10029;SDS011;5055;52.054;8.524;2024-03-02T04:57:31;0.70;;;0.70;;
10029;SDS011;5055;52.054;8.524;2024-03-02T04:59:59;0.50;;;0.50;;
10029;SDS011;5055;52.054;8.524;2024-03-02T05:02:27;0.50;;;0.50;;
10029;SDS011;5055;52.054;8.524;2024-03-02T05:04:55;0.40;;;0.40;;
10029;SDS011;5055;52.054;8.524;2024-03-02T05:07:23;0.50;;;0.50;;
10029;SDS011;5055;52.054;8.524;2024-03-02T05:09:51;0.40;;;0.40;;
10029;SDS011;5055;52.054;8.524;2024-03-02T05:12:19;0.40;;;0.40;;
10029;SDS011;5055;52.054;8.524;2024-03-02T05:15:15;0.47;;;0.47;;
10029;SDS011;5055;52.054;8.524;2024-03-02T05:17:43;0.40;;;0.40;;
10029;SDS011;5055;52.054;8.524;2024-03-02T05:20:11;0.50;;;0.50;;
10029;SDS011;5055;52.054;8.524;2024-03-02T05:22:39;0.53;;;0.53;;
10029;SDS011;5055;52.054;8.524;2024-03-02T05:25:08;0.40;;;0.40;;
10029;SDS011;5055;52.054;8.524;2024-03-02T05:27:37;0.40;;;0.40;;
10029;SDS011;5055;52.054;8.524;2024-03-02T05:30:06;0.50;;;0.50;;
10029;SDS011;5055;52.054;8.524;2024-03-02T05:32:36;0.37;;;0.37;;
10029;SDS011;5055;52.054;8.524;2024-03-02T05:35:05;0.40;;;0.40;;
10029;SDS011;5055;52.054;8.524;2024-03-02T05:37:34;0.50;;;0.50;;
10029;SDS011;5055;52.054;8.524;2024-03-02T05:40:02;0.60;;;0.60;;
10029;SDS011;5055;52.054;8.524;2024-03-02T05:42:32;0.50;;;0.50;;
10029;SDS011;5055;52.054;8.524;2024-03-02T05:45:00;0.43;;;0.43;;
10029;SDS011;5055;52.054;8.524;2024-03-02T05:47:28;0.50;;;0.50;;
10029;SDS011;5055;52.054;8.524;2024-03-02T05:49:57;0.60;;;0.60;;
10029;SDS011;5055;52.054;8.524;2024-03-02T05:52:25;0.40;;;0.40;;
10029;SDS011;5055;52.054;8.524;2024-03-02T05:54:54;0.50;;;0.50;;
10029;SDS011;5055;52.054;8.524;2024-03-02T05:57:22;0.50;;;0.50;;
10029;SDS011;5055;52.054;8.524;2024-03-02T06:00:05;0.50;;;0.50;;
10029;SDS011;5055;52.054;8.524;2024-03-02T06:02:34;0.57;;;0.57;;
10029;SDS011;5055;52.054;8.524;2024-03-02T06:05:06;0.70;;;0.70;;
10029;SDS011;5055;52.054;8.524;2024-03-02T06:07:35;0.60;;;0.60;;
10029;SDS011;5055;52.054;8.524;2024-03-02T06:10:03;0.40;;;0.40;;
10029;SDS011;5055;52.054;8.524;2024-03-02T06:12:37;0.43;;;0.43;;
10029;SDS011;5055;52.054;8.524;2024-03-02T06:15:06;0.50;;;0.50;;
10029;SDS011;5055;52.054;8.524;2024-03-02T06:17:34;0.40;;;0.40;;
10029;SDS011;5055;52.054;8.524;2024-03-02T06:20:03;0.50;;;0.50;;
10029;SDS011;5055;52.054;8.524;2024-03-02T06:22:35;0.40;;;0.40;;
10029;SDS011;5055;52.054;8.524;2024-03-02T06:25:04;0.50;;;0.50;;
10029;SDS011;5055;52.054;8.524;2024-03-02T06:27:32;0.50;;;0.50;;
10029;SDS011;5055;52.054;8.524;2024-03-02T06:30:00;0.40;;;0.40;;
10029;SDS011;5055;52.054;8.524;2024-03-02T06:32:30;0.40;;;0.40;;
10029;SDS011;5055;52.054;8.524;2024-03-02T06:34:58;0.40;;;0.40;;
10029;SDS011;5055;52.054;8.524;2024-03-02T06:37:26;0.50;;;0.50;;
10029;SDS011;5055;52.054;8.524;2024-03-02T06:39:56;0.70;;;0.70;;
10029;SDS011;5055;52.054;8.524;2024-03-02T06:42:24;0.40;;;0.40;;
10029;SDS011;5055;52.054;8.524;2024-03-02T06:44:52;0.50;;;0.50;;
10029;SDS011;5055;52.054;8.524;2024-03-02T06:47:20;0.50;;;0.50;;
10029;SDS011;5055;52.054;8.524;2024-03-02T06:49:48;0.50;;;0.50;;
10029;SDS011;5055;52.054;8.524;2024-03-02T06:52:17;0.50;;;0.50;;
10029;SDS011;5055;52.054;8.524;2024-03-02T06:54:50;0.47;;;0.47;;
10029;SDS011;5055;52.054;8.524;2024-03-02T06:57:19;0.50;;;0.50;;
10029;SDS011;5055;52.054;8.524;2024-03-02T06:59:47;0.50;;;0.50;;
10029;SDS011;5055;52.054;8.524;2024-03-02T07:02:17;0.50;;;0.50;;
10029;SDS011;5055;52.054;8.524;2024-03-02T07:04:45;0.70;;;0.70;;
10029;SDS011;5055;52.054;8.524;2024-03-02T07:07:13;0.60;;;0.60;;
10029;SDS011;5055;52.054;8.524;2024-03-02T07:09:41;0.50;;;0.50;;
10029;SDS011;5055;52.054;8.524;2024-03-02T07:12:09;0.57;;;0.57;;
10029;SDS011;5055;52.054;8.524;2024-03-02T07:14:39;0.60;;;0.60;;
10029;SDS011;5055;52.054;8.524;2024-03-02T07:17:23;0.50;;;0.50;;
10029;SDS011;5055;52.054;8.524;2024-03-02T07:19:52;0.50;;;0.50;;
10029;SDS011;5055;52.054;8.524;2024-03-02T07:22:20;0.40;;;0.40;;
10029;SDS011;5055;52.054;8.524;2024-03-02T07:24:49;0.60;;;0.60;;
10029;SDS011;5055;52.054;8.524;2024-03-02T07:27:17;0.57;;;0.57;;
10029;SDS011;5055;52.054;8.524;2024-03-02T07:29:46;0.50;;;0.50;;
10029;SDS011;5055;52.054;8.524;2024-03-02T07:32:14;0.50;;;0.50;;
10029;SDS011;5055;52.054;8.524;2024-03-02T07:34:42;0.60;;;0.60;;
10029;SDS011;5055;52.054;8.524;2024-03-02T07:37:10;0.50;;;0.50;;
10029;SDS011;5055;52.054;8.524;2024-03-02T07:39:39;0.60;;;0.60;;
10029;SDS011;5055;52.054;8.524;2024-03-02T07:42:07;0.50;;;0.50;;
10029;SDS011;5055;52.054;8.524;2024-03-02T07:44:35;0.40;;;0.40;;
10029;SDS011;5055;52.054;8.524;2024-03-02T07:47:07;0.50;;;0.50;;
10029;SDS011;5055;52.054;8.524;2024-03-02T07:49:35;0.60;;;0.60;;
10029;SDS011;5055;52.054;8.524;2024-03-02T07:52:03;0.60;;;0.60;;
10029;SDS011;5055;52.054;8.524;2024-03-02T07:54:31;0.50;;;0.50;;
10029;SDS011;5055;52.054;8.524;2024-03-02T07:57:00;0.50;;;0.50;;
10029;SDS011;5055;52.054;8.524;2024-03-02T07:59:28;0.40;;;0.40;;
10029;SDS011;5055;52.054;8.524;2024-03-02T08:01:56;0.60;;;0.60;;
10029;SDS011;5055;52.054;8.524;2024-03-02T08:04:26;0.40;;;0.40;;
10029;SDS011;5055;52.054;8.524;2024-03-02T08:06:54;0.63;;;0.63;;
10029;SDS011;5055;52.054;8.524;2024-03-02T08:09:22;0.50;;;0.50;;
10029;SDS011;5055;52.054;8.524;2024-03-02T08:11:50;0.40;;;0.40;;
10029;SDS011;5055;52.054;8.524;2024-03-02T08:14:18;0.67;;;0.67;;
10029;SDS011;5055;52.054;8.524;2024-03-02T08:16:46;0.33;;;0.33;;
10029;SDS011;5055;52.054;8.524;2024-03-02T08:19:14;0.60;;;0.60;;
10029;SDS011;5055;52.054;8.524;2024-03-02T08:21:44;0.50;;;0.50;;
10029;SDS011;5055;52.054;8.524;2024-03-02T08:24:12;0.40;;;0.40;;
10029;SDS011;5055;52.054;8.524;2024-03-02T08:26:41;0.30;;;0.30;;
10029;SDS011;5055;52.054;8.524;2024-03-02T08:29:09;0.30;;;0.30;;
10029;SDS011;5055;52.054;8.524;2024-03-02T08:31:38;0.50;;;0.50;;
10029;SDS011;5055;52.054;8.524;2024-03-02T08:34:07;0.30;;;0.30;;
10029;SDS011;5055;52.054;8.524;2024-03-02T08:36:36;0.20;;;0.20;;
10029;SDS011;5055;52.054;8.524;2024-03-02T08:39:06;0.20;;;0.20;;
10029;SDS011;5055;52.054;8.524;2024-03-02T08:41:41;0.47;;;0.47;;
10029;SDS011;5055;52.054;8.524;2024-03-02T08:44:10;0.30;;;0.30;;
10029;SDS011;5055;52.054;8.524;2024-03-02T08:46:38;0.30;;;0.30;;
10029;SDS011;5055;52.054;8.524;2024-03-02T08:49:07;0.20;;;0.20;;
10029;SDS011;5055;52.054;8.524;2024-03-02T08:51:35;0.40;;;0.40;;
10029;SDS011;5055;52.054;8.524;2024-03-02T08:54:03;0.37;;;0.37;;
10029;SDS011;5055;52.054;8.524;2024-03-02T08:56:33;0.20;;;0.20;;
10029;SDS011;5055;52.054;8.524;2024-03-02T08:59:01;0.30;;;0.30;;
10029;SDS011;5055;52.054;8.524;2024-03-02T09:01:30;0.20;;;0.20;;
10029;SDS011;5055;52.054;8.524;2024-03-02T09:03:58;0.30;;;0.30;;
10029;SDS011;5055;52.054;8.524;2024-03-02T09:06:26;0.30;;;0.30;;
10029;SDS011;5055;52.054;8.524;2024-03-02T09:08:55;0.30;;;0.30;;
10029;SDS011;5055;52.054;8.524;2024-03-02T09:11:25;0.27;;;0.27;;
10029;SDS011;5055;52.054;8.524;2024-03-02T09:13:54;0.30;;;0.30;;
10029;SDS011;5055;52.054;8.524;2024-03-02T09:16:24;0.30;;;0.30;;
10029;SDS011;5055;52.054;8.524;2024-03-02T09:18:57;0.30;;;0.30;;
10029;SDS011;5055;52.054;8.524;2024-03-02T09:21:26;0.20;;;0.20;;
10029;SDS011;5055;52.054;8.524;2024-03-02T09:23:56;0.20;;;0.20;;
10029;SDS011;5055;52.054;8.524;2024-03-02T09:26:25;0.30;;;0.30;;
10029;SDS011;5055;52.054;8.524;2024-03-02T09:28:54;0.30;;;0.30;;
10029;SDS011;5055;52.054;8.524;2024-03-02T09:31:22;0.30;;;0.30;;
10029;SDS011;5055;52.054;8.524;2024-03-02T09:33:50;0.30;;;0.30;;
10029;SDS011;5055;52.054;8.524;2024-03-02T09:36:19;0.30;;;0.30;;
10029;SDS011;5055;52.054;8.524;2024-03-02T09:38:47;0.20;;;0.20;;
10029;SDS011;5055;52.054;8.524;2024-03-02T09:41:15;0.30;;;0.30;;
10029;SDS011;5055;52.054;8.524;2024-03-02T09:43:45;0.30;;;0.30;;
10029;SDS011;5055;52.054;8.524;2024-03-02T09:46:16;0.30;;;0.30;;
10029;SDS011;5055;52.054;8.524;2024-03-02T09:48:45;0.20;;;0.20;;
10029;SDS011;5055;52.054;8.524;2024-03-02T09:51:13;0.30;;;0.30;;
10029;SDS011;5055;52.054;8.524;2024-03-02T09:53:41;0.30;;;0.30;;
10029;SDS011;5055;52.054;8.524;2024-03-02T09:56:10;0.30;;;0.30;;
10029;SDS011;5055;52.054;8.524;2024-03-02T09:58:38;0.20;;;0.20;;
10029;SDS011;5055;52.054;8.524;2024-03-02T10:01:07;0.30;;;0.30;;
10029;SDS011;5055;52.054;8.524;2024-03-02T10:03:37;0.20;;;0.20;;
10029;SDS011;5055;52.054;8.524;2024-03-02T10:06:21;0.20;;;0.20;;
10029;SDS011;5055;52.054;8.524;2024-03-02T10:08:50;0.30;;;0.30;;
10029;SDS011;5055;52.054;8.524;2024-03-02T10:11:28;0.20;;;0.20;;
10029;SDS011;5055;52.054;8.524;2024-03-02T10:14:07;0.30;;;0.30;;
10029;SDS011;5055;52.054;8.524;2024-03-02T10:16:38;0.30;;;0.30;;
10029;SDS011;5055;52.054;8.524;2024-03-02T10:19:14;0.30;;;0.30;;
10029;SDS011;5055;52.054;8.524;2024-03-02T10:21:44;0.20;;;0.20;;
10029;SDS011;5055;52.054;8.524;2024-03-02T10:24:12;0.30;;;0.30;;
10029;SDS011;5055;52.054;8.524;2024-03-02T10:26:41;0.20;;;0.20;;
10029;SDS011;5055;52.054;8.524;2024-03-02T10:29:09;0.20;;;0.20;;
10029;SDS011;5055;52.054;8.524;2024-03-02T10:31:39;0.40;;;0.40;;
10029;SDS011;5055;52.054;8.524;2024-03-02T10:34:08;0.30;;;0.30;;
10029;SDS011;5055;52.054;8.524;2024-03-02T10:36:37;0.20;;;0.20;;
10029;SDS011;5055;52.054;8.524;2024-03-02T10:39:08;0.20;;;0.20;;
10029;SDS011;5055;52.054;8.524;2024-03-02T10:41:38;0.20;;;0.20;;
10029;SDS011;5055;52.054;8.524;2024-03-02T10:44:06;0.20;;;0.20;;
10029;SDS011;5055;52.054;8.524;2024-03-02T10:46:36;0.20;;;0.20;;
10029;SDS011;5055;52.054;8.524;2024-03-02T10:49:06;0.30;;;0.30;;
10029;SDS011;5055;52.054;8.524;2024-03-02T10:51:35;0.30;;;0.30;;
10029;SDS011;5055;52.054;8.524;2024-03-02T10:54:04;0.20;;;0.20;;
10029;SDS011;5055;52.054;8.524;2024-03-02T10:56:44;0.30;;;0.30;;
10029;SDS011;5055;52.054;8.524;2024-03-02T10:59:16;0.30;;;0.30;;
10029;SDS011;5055;52.054;8.524;2024-03-02T11:01:55;0.20;;;0.20;;
10029;SDS011;5055;52.054;8.524;2024-03-02T11:04:30;0.30;;;0.30;;
10029;SDS011;5055;52.054;8.524;2024-03-02T11:07:00;0.30;;;0.30;;
10029;SDS011;5055;52.054;8.524;2024-03-02T11:09:33;0.20;;;0.20;;
10029;SDS011;5055;52.054;8.524;2024-03-02T11:12:06;0.23;;;0.23;;
10029;SDS011;5055;52.054;8.524;2024-03-02T11:14:40;0.30;;;0.30;;
10029;SDS011;5055;52.054;8.524;2024-03-02T11:17:10;0.20;;;0.20;;
10029;SDS011;5055;52.054;8.524;2024-03-02T11:19:42;0.30;;;0.30;;
10029;SDS011;5055;52.054;8.524;2024-03-02T11:22:11;0.30;;;0.30;;
10029;SDS011;5055;52.054;8.524;2024-03-02T11:24:41;0.20;;;0.20;;
10029;SDS011;5055;52.054;8.524;2024-03-02T11:27:20;0.20;;;0.20;;
10029;SDS011;5055;52.054;8.524;2024-03-02T11:33:18;0.30;;;0.30;;
10029;SDS011;5055;52.054;8.524;2024-03-02T11:35:53;0.20;;;0.20;;
10029;SDS011;5055;52.054;8.524;2024-03-02T11:38:27;0.30;;;0.30;;
10029;SDS011;5055;52.054;8.524;2024-03-02T11:40:57;0.20;;;0.20;;
10029;SDS011;5055;52.054;8.524;2024-03-02T11:43:28;0.37;;;0.37;;
10029;SDS011;5055;52.054;8.524;2024-03-02T11:45:57;0.30;;;0.30;;
10029;SDS011;5055;52.054;8.524;2024-03-02T11:48:26;0.30;;;0.30;;
10029;SDS011;5055;52.054;8.524;2024-03-02T11:50:54;0.23;;;0.23;;
10029;SDS011;5055;52.054;8.524;2024-03-02T11:53:26;0.20;;;0.20;;
10029;SDS011;5055;52.054;8.524;2024-03-02T11:55:59;0.20;;;0.20;;
10029;SDS011;5055;52.054;8.524;2024-03-02T11:58:30;0.20;;;0.20;;
10029;SDS011;5055;52.054;8.524;2024-03-02T12:00:58;0.30;;;0.30;;
10029;SDS011;5055;52.054;8.524;2024-03-02T12:03:29;0.20;;;0.20;;
10029;SDS011;5055;52.054;8.524;2024-03-02T12:05:57;0.20;;;0.20;;
10029;SDS011;5055;52.054;8.524;2024-03-02T12:08:26;0.20;;;0.20;;
10029;SDS011;5055;52.054;8.524;2024-03-02T12:10:56;0.30;;;0.30;;
10029;SDS011;5055;52.054;8.524;2024-03-02T12:13:25;0.30;;;0.30;;
10029;SDS011;5055;52.054;8.524;2024-03-02T12:15:55;0.20;;;0.20;;
10029;SDS011;5055;52.054;8.524;2024-03-02T12:18:24;0.40;;;0.40;;
10029;SDS011;5055;52.054;8.524;2024-03-02T12:20:53;0.20;;;0.20;;
10029;SDS011;5055;52.054;8.524;2024-03-02T12:23:24;0.20;;;0.20;;
10029;SDS011;5055;52.054;8.524;2024-03-02T12:25:53;0.30;;;0.30;;
10029;SDS011;5055;52.054;8.524;2024-03-02T12:28:21;0.30;;;0.30;;
10029;SDS011;5055;52.054;8.524;2024-03-02T12:30:49;0.30;;;0.30;;
10029;SDS011;5055;52.054;8.524;2024-03-02T12:33:19;0.20;;;0.20;;
10029;SDS011;5055;52.054;8.524;2024-03-02T12:35:48;0.20;;;0.20;;
10029;SDS011;5055;52.054;8.524;2024-03-02T12:38:17;0.20;;;0.20;;
10029;SDS011;5055;52.054;8.524;2024-03-02T12:40:47;0.20;;;0.20;;
10029;SDS011;5055;52.054;8.524;2024-03-02T12:43:16;0.20;;;0.20;;
10029;SDS011;5055;52.054;8.524;2024-03-02T12:45:44;0.20;;;0.20;;
10029;SDS011;5055;52.054;8.524;2024-03-02T12:48:15;0.20;;;0.20;;
10029;SDS011;5055;52.054;8.524;2024-03-02T12:50:46;0.30;;;0.30;;
10029;SDS011;5055;52.054;8.524;2024-03-02T12:53:15;0.30;;;0.30;;
10029;SDS011;5055;52.054;8.524;2024-03-02T12:55:44;0.30;;;0.30;;
10029;SDS011;5055;52.054;8.524;2024-03-02T12:58:19;0.20;;;0.20;;
10029;SDS011;5055;52.054;8.524;2024-03-02T13:00:48;0.20;;;0.20;;
10029;SDS011;5055;52.054;8.524;2024-03-02T13:03:17;0.10;;;0.10;;
10029;SDS011;5055;52.054;8.524;2024-03-02T13:05:52;0.20;;;0.20;;
10029;SDS011;5055;52.054;8.524;2024-03-02T13:08:20;0.20;;;0.20;;
10029;SDS011;5055;52.054;8.524;2024-03-02T13:10:48;0.20;;;0.20;;
10029;SDS011;5055;52.054;8.524;2024-03-02T13:13:17;0.20;;;0.20;;
10029;SDS011;5055;52.054;8.524;2024-03-02T13:15:45;0.20;;;0.20;;
10029;SDS011;5055;52.054;8.524;2024-03-02T13:18:13;0.20;;;0.20;;
10029;SDS011;5055;52.054;8.524;2024-03-02T13:20:41;0.20;;;0.20;;
10029;SDS011;5055;52.054;8.524;2024-03-02T13:23:11;0.10;;;0.10;;
10029;SDS011;5055;52.054;8.524;2024-03-02T13:25:39;0.20;;;0.20;;
10029;SDS011;5055;52.054;8.524;2024-03-02T13:28:08;0.20;;;0.20;;
10029;SDS011;5055;52.054;8.524;2024-03-02T13:30:37;0.20;;;0.20;;
10029;SDS011;5055;52.054;8.524;2024-03-02T13:33:05;0.20;;;0.20;;
10029;SDS011;5055;52.054;8.524;2024-03-02T13:35:33;0.10;;;0.10;;
10029;SDS011;5055;52.054;8.524;2024-03-02T13:38:02;0.20;;;0.20;;
10029;SDS011;5055;52.054;8.524;2024-03-02T13:40:32;0.10;;;0.10;;
10029;SDS011;5055;52.054;8.524;2024-03-02T13:43:02;0.10;;;0.10;;
10029;SDS011;5055;52.054;8.524;2024-03-02T13:45:31;0.10;;;0.10;;
10029;SDS011;5055;52.054;8.524;2024-03-02T13:48:00;0.10;;;0.10;;
10029;SDS011;5055;52.054;8.524;2024-03-02T13:50:29;0.10;;;0.10;;
10029;SDS011;5055;52.054;8.524;2024-03-02T13:52:58;0.10;;;0.10;;
10029;SDS011;5055;52.054;8.524;2024-03-02T13:55:26;0.10;;;0.10;;
10029;SDS011;5055;52.054;8.524;2024-03-02T13:57:55;0.10;;;0.10;;
10029;SDS011;5055;52.054;8.524;2024-03-02T14:00:23;0.10;;;0.10;;
10029;SDS011;5055;52.054;8.524;2024-03-02T14:02:53;0.10;;;0.10;;
10029;SDS011;5055;52.054;8.524;2024-03-02T14:05:21;0.10;;;0.10;;
10029;SDS011;5055;52.054;8.524;2024-03-02T14:07:49;0.10;;;0.10;;
10029;SDS011;5055;52.054;8.524;2024-03-02T14:10:18;0.10;;;0.10;;
10029;SDS011;5055;52.054;8.524;2024-03-02T14:12:48;0.20;;;0.20;;
10029;SDS011;5055;52.054;8.524;2024-03-02T14:15:18;0.10;;;0.10;;
10029;SDS011;5055;52.054;8.524;2024-03-02T14:17:47;0.10;;;0.10;;
10029;SDS011;5055;52.054;8.524;2024-03-02T14:20:16;0.10;;;0.10;;
10029;SDS011;5055;52.054;8.524;2024-03-02T14:22:48;0.10;;;0.10;;
10029;SDS011;5055;52.054;8.524;2024-03-02T14:25:17;0.10;;;0.10;;
10029;SDS011;5055;52.054;8.524;2024-03-02T14:27:46;0.10;;;0.10;;
10029;SDS011;5055;52.054;8.524;2024-03-02T14:30:35;0.10;;;0.10;;
10029;SDS011;5055;52.054;8.524;2024-03-02T14:33:04;0.10;;;0.10;;
10029;SDS011;5055;52.054;8.524;2024-03-02T14:35:32;0.10;;;0.10;;
10029;SDS011;5055;52.054;8.524;2024-03-02T14:38:01;0.10;;;0.10;;
10029;SDS011;5055;52.054;8.524;2024-03-02T14:40:29;0.20;;;0.20;;
10029;SDS011;5055;52.054;8.524;2024-03-02T14:42:57;0.20;;;0.20;;
10029;SDS011;5055;52.054;8.524;2024-03-02T14:45:26;0.20;;;0.20;;
10029;SDS011;5055;52.054;8.524;2024-03-02T14:47:56;0.20;;;0.20;;
10029;SDS011;5055;52.054;8.524;2024-03-02T14:50:26;0.20;;;0.20;;
10029;SDS011;5055;52.054;8.524;2024-03-02T14:52:54;0.10;;;0.10;;
10029;SDS011;5055;52.054;8.524;2024-03-02T14:55:24;0.20;;;0.20;;
10029;SDS011;5055;52.054;8.524;2024-03-02T14:57:52;0.10;;;0.10;;
10029;SDS011;5055;52.054;8.524;2024-03-02T15:00:21;0.10;;;0.10;;
10029;SDS011;5055;52.054;8.524;2024-03-02T15:02:49;0.10;;;0.10;;
10029;SDS011;5055;52.054;8.524;2024-03-02T15:05:19;0.10;;;0.10;;
10029;SDS011;5055;52.054;8.524;2024-03-02T15:07:48;0.10;;;0.10;;
10029;SDS011;5055;52.054;8.524;2024-03-02T15:10:16;0.10;;;0.10;;
10029;SDS011;5055;52.054;8.524;2024-03-02T15:12:44;0.10;;;0.10;;
10029;SDS011;5055;52.054;8.524;2024-03-02T15:15:13;0.20;;;0.20;;
10029;SDS011;5055;52.054;8.524;2024-03-02T15:17:41;0.10;;;0.10;;